Terminal Aerodrome Forecast
Issued by NWS Shreveport, LA

Home | Current Version | Previous Version | Text Only | Print | Product List | Glossary On
Versions: 1 2 3 4 5 6 7 8 9 10 11 12
000
FTUS44 KSHV 250549
TAFMLU
TAF
KMLU 250549Z 2506/2606 18003KT P6SM SCT250
     FM251600 24006KT P6SM SCT120 BKN180
     FM252000 33005KT P6SM BKN120 BKN180
     FM260000 02004KT P6SM FEW050 SCT120=

USA.gov is the U.S. government's official web portal to all federal, state and local government web resources and services.